Time;durP1;ratioP1;P1;durP2;ratioP2;P2;SDS_P1;SDS_P2;PMS_P1;PMS_P2;Temp;Humidity;BMP_temperature;BMP_pressure;BME280_temperature;BME280_humidity;BME280_pressure;Samples;Min_cycle;Max_cycle;Signal;HPM_P1;HPM_P2
2023/03/14 00:02:21;;;;;;;12.07;2.07;;;;;;;9.07;100.00;98866.31;5050515;28;20037;-84
2023/03/14 00:04:47;;;;;;;9.52;2.20;;;;;;;9.02;100.00;98871.75;5050244;28;20052;-84
2023/03/14 00:07:13;;;;;;;10.53;2.07;;;;;;;8.90;100.00;98875.69;5050107;28;20025;-85
2023/03/14 00:09:41;;;;;;;13.20;1.65;;;;;;;8.86;100.00;98877.34;5031076;28;20381;-85
2023/03/14 00:12:07;;;;;;;16.13;2.27;;;;;;;8.75;100.00;98862.59;5062522;28;20143;-85
2023/03/14 00:14:33;;;;;;;10.82;1.60;;;;;;;8.69;100.00;98871.78;5050019;28;20120;-85
2023/03/14 00:16:58;;;;;;;9.48;1.50;;;;;;;8.54;100.00;98854.94;5049600;28;20032;-85
2023/03/14 00:19:23;;;;;;;6.17;1.23;;;;;;;8.48;100.00;98880.13;5049328;28;20079;-85
2023/03/14 00:21:49;;;;;;;7.73;1.10;;;;;;;8.41;100.00;98874.31;5048647;28;20151;-86
2023/03/14 00:24:14;;;;;;;9.50;1.23;;;;;;;8.36;100.00;98882.44;5050189;28;20369;-85
2023/03/14 00:26:39;;;;;;;10.10;1.47;;;;;;;8.28;100.00;98891.88;5049092;28;20511;-84
2023/03/14 00:29:05;;;;;;;7.97;0.90;;;;;;;8.21;100.00;98889.59;5047653;28;20020;-85
2023/03/14 00:31:30;;;;;;;7.83;1.30;;;;;;;8.10;100.00;98886.25;5065757;28;20044;-84
2023/03/14 00:33:56;;;;;;;5.67;0.80;;;;;;;8.02;100.00;98895.72;5049374;28;20029;-85
2023/03/14 00:36:22;;;;;;;6.43;1.05;;;;;;;8.01;100.00;98894.13;5049742;28;20715;-85
2023/03/14 00:38:52;;;;;;;8.03;0.87;;;;;;;8.04;100.00;98898.06;5048253;28;20072;-84
2023/03/14 00:41:22;;;;;;;9.32;1.23;;;;;;;8.11;100.00;98908.38;5049545;28;20025;-86
2023/03/14 00:43:48;;;;;;;6.40;0.80;;;;;;;8.18;100.00;98884.81;5059468;28;20025;-85
2023/03/14 00:46:13;;;;;;;11.57;0.98;;;;;;;8.27;100.00;98899.06;5049960;28;20160;-85
2023/03/14 00:48:39;;;;;;;8.30;1.00;;;;;;;8.36;100.00;98909.13;5047139;28;20084;-85
2023/03/14 00:51:06;;;;;;;8.25;0.82;;;;;;;8.32;100.00;98911.53;5048235;28;20036;-85
2023/03/14 00:53:34;;;;;;;8.10;0.93;;;;;;;8.33;100.00;98921.13;5049614;28;20033;-84
2023/03/14 00:56:02;;;;;;;9.13;1.05;;;;;;;8.36;100.00;98920.56;5049045;28;20464;-84
2023/03/14 00:58:28;;;;;;;6.13;1.17;;;;;;;8.28;100.00;98908.66;5050713;28;20047;-84
2023/03/14 01:00:53;;;;;;;7.80;1.30;;;;;;;8.34;100.00;98904.03;5051443;28;20642;-84
2023/03/14 01:03:18;;;;;;;6.47;1.10;;;;;;;8.37;100.00;98900.03;5053445;28;20028;-84
2023/03/14 01:05:43;;;;;;;7.35;0.90;;;;;;;8.39;100.00;98897.88;5053350;28;20510;-84
2023/03/14 01:08:09;;;;;;;7.00;1.40;;;;;;;8.38;100.00;98890.94;5051023;28;20097;-84
2023/03/14 01:10:38;;;;;;;7.60;0.97;;;;;;;8.43;100.00;98898.84;5052954;28;20057;-85
2023/03/14 01:13:04;;;;;;;7.90;1.05;;;;;;;8.39;100.00;98903.97;5035586;28;20477;-84
2023/03/14 01:15:29;;;;;;;7.27;1.30;;;;;;;8.38;100.00;98905.06;5034844;28;20364;-85
2023/03/14 01:17:54;;;;;;;12.13;1.30;;;;;;;8.46;100.00;98892.94;5049714;28;20048;-84
2023/03/14 01:20:20;;;;;;;10.90;1.00;;;;;;;8.45;100.00;98891.34;5061684;28;20032;-84
2023/03/14 01:22:45;;;;;;;6.17;0.83;;;;;;;8.47;100.00;98891.84;5072346;28;20032;-84
2023/03/14 01:25:13;;;;;;;8.77;1.08;;;;;;;8.45;100.00;98888.66;5073038;28;20040;-84
2023/03/14 01:27:39;;;;;;;4.50;0.70;;;;;;;8.41;100.00;98885.00;5073399;28;20025;-84
2023/03/14 01:30:05;;;;;;;6.40;0.93;;;;;;;8.46;100.00;98887.59;5051412;28;20033;-84
2023/03/14 01:32:30;;;;;;;5.17;0.67;;;;;;;8.48;100.00;98886.25;5052968;28;20384;-86
2023/03/14 01:34:56;;;;;;;4.70;0.80;;;;;;;8.43;100.00;98872.16;5057884;28;20298;-84
2023/03/14 01:37:21;;;;;;;8.45;1.13;;;;;;;8.41;100.00;98867.13;5072789;28;20380;-84
2023/03/14 01:39:47;;;;;;;6.27;1.00;;;;;;;8.41;100.00;98868.97;5054065;28;20052;-84
2023/03/14 01:42:13;;;;;;;5.30;0.80;;;;;;;8.43;100.00;98866.81;5052601;28;20017;-85
2023/03/14 01:44:56;;;;;;;8.90;1.08;;;;;;;8.43;100.00;98854.28;5052858;28;20595;-84
2023/03/14 01:47:24;;;;;;;11.85;1.55;;;;;;;8.53;100.00;98850.69;5052323;28;20456;-84
2023/03/14 01:49:56;;;;;;;9.40;1.10;;;;;;;8.51;100.00;98852.03;5050557;28;20040;-85
2023/03/14 01:52:27;;;;;;;12.83;1.43;;;;;;;8.53;100.00;98840.00;5050184;28;20488;-84
2023/03/14 01:55:05;;;;;;;4.43;0.97;;;;;;;8.58;100.00;98842.56;5052269;28;20335;-84
2023/03/14 01:57:35;;;;;;;6.20;0.95;;;;;;;8.59;100.00;98846.81;5052352;28;20397;-84
2023/03/14 02:00:13;;;;;;;6.43;1.00;;;;;;;8.68;100.00;98846.16;5050940;28;20048;-84
2023/03/14 02:02:46;;;;;;;7.78;1.00;;;;;;;8.71;100.00;98837.56;5051987;28;20025;-83
2023/03/14 02:05:15;;;;;;;5.90;0.95;;;;;;;8.72;100.00;98831.16;5051739;28;20037;-84
2023/03/14 02:07:48;;;;;;;5.43;1.20;;;;;;;8.77;100.00;98834.50;5052261;28;20033;-84
2023/03/14 02:10:15;;;;;;;6.13;0.93;;;;;;;8.75;100.00;98842.03;5065502;28;20290;-84
2023/03/14 02:12:40;;;;;;;6.07;1.00;;;;;;;8.85;100.00;98826.91;5059608;28;20032;-86
2023/03/14 02:15:06;;;;;;;7.28;1.15;;;;;;;8.92;100.00;98838.00;5058768;28;20384;-86
2023/03/14 02:17:32;;;;;;;10.38;1.25;;;;;;;8.96;100.00;98840.84;5049660;28;20033;-85
2023/03/14 02:20:17;;;;;;;9.73;1.43;;;;;;;9.03;100.00;98841.28;5053862;28;20028;-85
2023/03/14 02:22:46;;;;;;;6.88;1.27;;;;;;;9.07;100.00;98848.38;5047774;28;20075;-85
2023/03/14 02:25:36;;;;;;;9.87;1.00;;;;;;;9.09;100.00;98846.22;5051779;28;20111;-85
2023/03/14 02:28:01;;;;;;;6.23;1.30;;;;;;;9.07;100.00;98839.59;5032075;28;20272;-85
2023/03/14 02:30:30;;;;;;;7.65;1.13;;;;;;;9.10;100.00;98831.00;5037061;28;20039;-84
2023/03/14 02:33:04;;;;;;;8.25;1.20;;;;;;;9.07;100.00;98827.00;5049953;28;20029;-85
2023/03/14 02:35:39;;;;;;;8.68;1.30;;;;;;;9.05;100.00;98823.06;5064686;28;20063;-85
2023/03/14 02:38:20;;;;;;;7.60;1.23;;;;;;;9.03;100.00;98820.69;5071467;28;20090;-86
2023/03/14 02:40:46;;;;;;;8.73;1.10;;;;;;;8.87;100.00;98809.50;5039074;28;20829;-85
2023/03/14 02:43:12;;;;;;;10.15;2.00;;;;;;;8.77;100.00;98815.00;5050108;28;20071;-85
2023/03/14 02:45:39;;;;;;;9.15;1.73;;;;;;;8.72;100.00;98815.91;5048036;28;20404;-86
2023/03/14 02:48:16;;;;;;;11.60;1.52;;;;;;;8.74;100.00;98818.28;5049836;28;20036;-86
2023/03/14 02:50:43;;;;;;;9.70;1.30;;;;;;;8.83;100.00;98810.41;5046769;28;20098;-86
2023/03/14 02:53:08;;;;;;;11.07;1.40;;;;;;;8.88;100.00;98816.44;5051097;28;20028;-85
2023/03/14 02:55:33;;;;;;;6.90;1.30;;;;;;;8.91;100.00;98815.84;5065088;28;20035;-86
2023/03/14 02:57:59;;;;;;;8.93;1.10;;;;;;;8.96;100.00;98814.13;5070965;28;20472;-85
2023/03/14 03:00:24;;;;;;;10.63;1.67;;;;;;;9.01;100.00;98828.22;5051707;28;20407;-85
2023/03/14 03:02:50;;;;;;;7.60;1.50;;;;;;;9.02;100.00;98826.31;5050070;28;20465;-85
2023/03/14 03:05:16;;;;;;;10.48;1.38;;;;;;;9.02;100.00;98820.97;5049871;28;20108;-85
2023/03/14 03:07:41;;;;;;;9.67;1.50;;;;;;;9.05;100.00;98829.19;5050136;28;20056;-86
2023/03/14 03:10:07;;;;;;;7.50;1.17;;;;;;;9.04;100.00;98822.25;5039628;28;20100;-85
2023/03/14 03:12:32;;;;;;;9.55;1.20;;;;;;;9.03;100.00;98823.38;5019030;28;20050;-86
2023/03/14 03:14:57;;;;;;;11.40;1.50;;;;;;;9.10;100.00;98831.00;5059268;28;20027;-85
2023/03/14 03:17:23;;;;;;;6.63;1.10;;;;;;;9.12;100.00;98828.00;5047117;28;20049;-86
2023/03/14 03:19:48;;;;;;;5.97;1.37;;;;;;;9.16;100.00;98827.13;5049430;28;20407;-85
2023/03/14 03:22:13;;;;;;;6.95;1.23;;;;;;;9.15;100.00;98817.50;5049895;28;20041;-86
2023/03/14 03:24:39;;;;;;;11.33;1.60;;;;;;;9.13;100.00;98814.34;5049294;28;20694;-86
2023/03/14 03:27:07;;;;;;;8.30;1.00;;;;;;;9.16;100.00;98819.09;5031920;28;20473;-86
2023/03/14 03:29:32;;;;;;;8.88;1.42;;;;;;;9.15;100.00;98803.38;5050539;28;20423;-86
2023/03/14 03:31:58;;;;;;;7.00;1.20;;;;;;;9.17;100.00;98820.69;5049768;28;20025;-85
2023/03/14 03:34:23;;;;;;;8.60;1.40;;;;;;;9.14;100.00;98810.59;5052380;28;20646;-86
2023/03/14 03:36:48;;;;;;;6.40;0.97;;;;;;;9.13;100.00;98814.34;5049629;28;20025;-86
2023/03/14 03:39:14;;;;;;;6.67;1.27;;;;;;;9.13;100.00;98813.56;5050347;28;20025;-86
2023/03/14 03:41:39;;;;;;;7.95;1.30;;;;;;;9.11;100.00;98813.88;5050450;28;20112;-86
2023/03/14 03:44:05;;;;;;;8.97;1.27;;;;;;;9.09;100.00;98811.47;5049021;28;20032;-85
2023/03/14 03:46:31;;;;;;;5.90;1.10;;;;;;;9.11;100.00;98811.19;5031704;28;20561;-86
2023/03/14 03:48:58;;;;;;;7.40;1.07;;;;;;;9.09;100.00;98810.72;5049444;28;20061;-86
2023/03/14 03:51:24;;;;;;;12.50;1.40;;;;;;;9.09;100.00;98806.13;5058603;28;20064;-85
2023/03/14 03:53:50;;;;;;;8.10;1.10;;;;;;;9.09;100.00;98797.34;5049489;28;20067;-86
2023/03/14 03:56:15;;;;;;;8.93;1.47;;;;;;;9.04;100.00;98800.09;5048626;28;20533;-85
2023/03/14 03:58:41;;;;;;;5.43;1.10;;;;;;;9.05;100.00;98793.69;5060001;28;20719;-85
2023/03/14 04:01:08;;;;;;;7.43;1.13;;;;;;;9.03;100.00;98801.19;5054288;28;20079;-86
2023/03/14 04:03:34;;;;;;;7.47;1.50;;;;;;;9.03;100.00;98790.50;5067482;28;20088;-85
2023/03/14 04:06:04;;;;;;;5.03;1.20;;;;;;;9.05;100.00;98807.81;5050260;28;20279;-86
2023/03/14 04:08:29;;;;;;;9.27;1.48;;;;;;;8.99;100.00;98800.19;5047547;28;20071;-86
2023/03/14 04:10:59;;;;;;;7.38;0.98;;;;;;;8.83;100.00;98789.03;5047801;28;20032;-86
2023/03/14 04:13:27;;;;;;;5.10;0.90;;;;;;;8.71;100.00;98784.16;5050294;28;20036;-84
2023/03/14 04:15:54;;;;;;;6.83;0.90;;;;;;;8.59;100.00;98789.97;5049110;28;21107;-85
2023/03/14 04:18:20;;;;;;;9.38;1.05;;;;;;;8.48;100.00;98789.38;5053330;28;20114;-85
2023/03/14 04:20:45;;;;;;;6.95;1.00;;;;;;;8.41;100.00;98783.56;5050008;28;20298;-84
2023/03/14 04:23:11;;;;;;;5.53;0.80;;;;;;;8.38;100.00;98792.19;5049822;28;20775;-84
2023/03/14 04:25:36;;;;;;;10.97;1.20;;;;;;;8.46;100.00;98781.63;5053896;28;21073;-84
2023/03/14 04:28:03;;;;;;;5.90;0.93;;;;;;;8.52;100.00;98786.88;5049769;28;20029;-85
2023/03/14 04:30:29;;;;;;;7.35;1.00;;;;;;;8.57;100.00;98790.28;5069149;28;20145;-85
2023/03/14 04:32:54;;;;;;;6.47;1.00;;;;;;;8.62;100.00;98792.06;5069105;28;20551;-85
2023/03/14 04:35:20;;;;;;;7.90;1.20;;;;;;;8.63;100.00;98786.41;5068305;28;20255;-85
2023/03/14 04:37:48;;;;;;;4.33;0.70;;;;;;;8.67;100.00;98778.63;5055320;28;20029;-86
2023/03/14 04:40:15;;;;;;;4.83;1.20;;;;;;;8.63;100.00;98785.66;5073581;28;20040;-86
2023/03/14 04:42:41;;;;;;;4.50;0.70;;;;;;;8.66;100.00;98773.56;5061679;28;20303;-86
2023/03/14 04:45:07;;;;;;;3.58;0.77;;;;;;;8.67;100.00;98775.97;5052644;28;20031;-85
2023/03/14 04:47:32;;;;;;;3.42;0.60;;;;;;;8.68;100.00;98777.53;5052842;28;20032;-85
2023/03/14 04:49:57;;;;;;;6.50;0.80;;;;;;;8.70;100.00;98769.22;5053813;28;20032;-85
2023/03/14 04:52:23;;;;;;;4.47;0.80;;;;;;;8.71;100.00;98766.25;5051999;28;20052;-85
2023/03/14 04:54:48;;;;;;;4.47;0.80;;;;;;;8.71;100.00;98781.50;5052989;28;20464;-86
2023/03/14 04:57:15;;;;;;;3.60;0.70;;;;;;;8.68;100.00;98787.41;5035653;28;20056;-85
2023/03/14 04:59:40;;;;;;;2.37;0.80;;;;;;;8.57;100.00;98771.59;5052592;28;20028;-86
2023/03/14 05:02:05;;;;;;;3.60;0.90;;;;;;;8.52;100.00;98777.03;5052595;28;20272;-86
2023/03/14 05:04:32;;;;;;;4.07;1.00;;;;;;;8.45;100.00;98771.22;5052911;28;20488;-85
2023/03/14 05:06:58;;;;;;;3.33;1.10;;;;;;;8.38;100.00;98779.63;5056488;28;20026;-85
2023/03/14 05:09:23;;;;;;;2.73;1.10;;;;;;;8.37;100.00;98782.59;5058860;28;20116;-85
2023/03/14 05:11:49;;;;;;;3.87;1.17;;;;;;;8.31;100.00;98789.88;5049482;28;20684;-84
2023/03/14 05:14:14;;;;;;;4.77;1.67;;;;;;;8.29;100.00;98782.19;5051485;28;20017;-84
2023/03/14 05:16:39;;;;;;;2.95;1.13;;;;;;;8.26;100.00;98780.09;5051991;28;20341;-84
2023/03/14 05:19:05;;;;;;;5.83;1.70;;;;;;;8.16;100.00;98775.72;5052957;28;20020;-84
2023/03/14 05:21:30;;;;;;;5.67;1.70;;;;;;;8.11;100.00;98775.00;5053278;28;20044;-84
2023/03/14 05:23:55;;;;;;;5.20;1.47;;;;;;;8.08;100.00;98786.25;5055121;28;20029;-85
2023/03/14 05:26:21;;;;;;;3.50;1.37;;;;;;;8.07;100.00;98774.00;5034496;28;20127;-86
2023/03/14 05:28:46;;;;;;;5.57;1.45;;;;;;;8.04;100.00;98775.38;5051159;28;20033;-83
2023/03/14 05:31:11;;;;;;;4.87;1.50;;;;;;;7.99;100.00;98773.59;5052191;28;20041;-85
2023/03/14 05:33:37;;;;;;;5.67;1.77;;;;;;;8.01;100.00;98768.75;5053422;28;20025;-85
2023/03/14 05:36:02;;;;;;;4.03;1.60;;;;;;;8.02;100.00;98762.34;5051705;28;20055;-84
2023/03/14 05:38:28;;;;;;;3.97;1.70;;;;;;;8.00;100.00;98753.84;5052342;28;20044;-84
2023/03/14 05:40:53;;;;;;;7.53;2.10;;;;;;;8.01;100.00;98755.44;5059106;28;20108;-84
2023/03/14 05:43:18;;;;;;;5.07;1.80;;;;;;;8.03;100.00;98753.22;5072240;28;20024;-86
2023/03/14 05:45:43;;;;;;;5.30;2.00;;;;;;;7.99;100.00;98754.91;5051270;28;20514;-86
2023/03/14 05:48:09;;;;;;;6.27;1.60;;;;;;;7.99;100.00;98746.91;5058955;28;20532;-86
2023/03/14 05:50:35;;;;;;;9.07;1.80;;;;;;;7.98;100.00;98750.66;5072217;28;20424;-86
2023/03/14 05:53:00;;;;;;;6.35;1.70;;;;;;;8.03;100.00;98747.13;5054123;28;20087;-86
2023/03/14 05:55:26;;;;;;;7.50;1.87;;;;;;;8.06;100.00;98743.06;5050032;28;20032;-86
2023/03/14 05:57:53;;;;;;;8.93;2.43;;;;;;;8.08;100.00;98749.72;5053005;28;20091;-86
2023/03/14 06:00:24;;;;;;;4.70;2.00;;;;;;;8.10;100.00;98741.41;5052494;28;20469;-86
2023/03/14 06:02:49;;;;;;;5.93;1.80;;;;;;;8.09;100.00;98745.16;5050909;28;20047;-86
2023/03/14 06:05:15;;;;;;;6.13;1.57;;;;;;;8.06;100.00;98741.22;5051822;28;20017;-86
2023/03/14 06:07:40;;;;;;;6.53;1.67;;;;;;;8.14;100.00;98739.75;5070256;28;20067;-85
2023/03/14 06:10:06;;;;;;;6.43;1.93;;;;;;;8.15;100.00;98733.31;5053628;28;20112;-85
2023/03/14 06:22:52;;;;;;;5.43;2.00;;;;;;;8.03;100.00;98721.22;5516160;22;20284;-84
2023/03/14 06:25:17;;;;;;;4.25;1.77;;;;;;;8.07;100.00;98725.97;5048682;28;20033;-83
2023/03/14 06:27:51;;;;;;;6.67;2.50;;;;;;;8.13;100.00;98730.16;5042568;28;20025;-84
2023/03/14 06:30:17;;;;;;;7.22;2.88;;;;;;;8.12;100.00;98737.38;5039017;28;20039;-84
2023/03/14 06:33:18;;;;;;;5.73;2.87;;;;;;;8.11;100.00;98729.66;5046735;28;20043;-84
2023/03/14 06:39:06;;;;;;;5.53;2.50;;;;;;;8.19;100.00;98731.66;5022745;28;20542;-84
2023/03/14 06:41:32;;;;;;;5.03;2.70;;;;;;;8.31;100.00;98748.00;5049655;28;20037;-84
2023/03/14 06:43:58;;;;;;;8.35;3.00;;;;;;;8.36;100.00;98749.78;5049973;28;20020;-84
2023/03/14 06:46:24;;;;;;;6.53;2.83;;;;;;;8.44;100.00;98759.78;5049574;28;20029;-84
2023/03/14 06:48:49;;;;;;;7.70;3.10;;;;;;;8.48;100.00;98768.81;5048365;28;20032;-84
2023/03/14 06:51:15;;;;;;;6.73;2.97;;;;;;;8.50;100.00;98765.84;5049947;28;20033;-85
2023/03/14 06:53:40;;;;;;;5.85;2.60;;;;;;;8.53;100.00;98759.13;5047617;28;20041;-84
2023/03/14 06:56:06;;;;;;;4.17;2.77;;;;;;;8.62;100.00;98766.16;5047418;28;20104;-83
2023/03/14 06:58:31;;;;;;;7.78;2.38;;;;;;;8.71;100.00;98770.81;5049455;28;20120;-83
2023/03/14 07:00:58;;;;;;;4.90;3.00;;;;;;;8.78;100.00;98772.00;5049012;28;20082;-84
2023/03/14 07:03:23;;;;;;;4.38;2.50;;;;;;;8.90;100.00;98770.72;5051219;28;20013;-86
2023/03/14 07:05:49;;;;;;;7.37;3.00;;;;;;;8.99;100.00;98765.47;5051419;28;20464;-85
2023/03/14 07:08:14;;;;;;;10.07;3.00;;;;;;;9.07;100.00;98780.81;5050488;28;20106;-88
2023/03/14 07:10:39;;;;;;;8.88;3.28;;;;;;;9.03;100.00;98777.16;5051831;28;20036;-87
2023/03/14 07:13:04;;;;;;;8.23;3.00;;;;;;;8.93;100.00;98784.28;5050694;28;20036;-86
2023/03/14 07:15:30;;;;;;;8.93;2.67;;;;;;;8.81;100.00;98781.28;5051472;28;20523;-86
2023/03/14 07:17:55;;;;;;;8.70;3.23;;;;;;;8.71;100.00;98776.16;5049576;28;20032;-86
2023/03/14 07:20:21;;;;;;;5.73;2.87;;;;;;;8.69;100.00;98794.34;5048858;28;20110;-88
2023/03/14 07:22:50;;;;;;;9.27;3.00;;;;;;;8.67;100.00;98799.19;5049001;28;20330;-89
2023/03/14 07:25:16;;;;;;;13.70;2.87;;;;;;;8.65;100.00;98799.50;5052221;28;20025;-89
2023/03/14 07:27:45;;;;;;;8.73;3.67;;;;;;;8.61;100.00;98807.28;5047244;28;20298;-86
2023/03/14 07:30:11;;;;;;;6.85;2.88;;;;;;;8.56;100.00;98826.06;5042960;28;20378;-87
2023/03/14 07:32:36;;;;;;;8.80;3.08;;;;;;;8.52;100.00;98886.47;5042780;28;20085;-87
2023/03/14 07:35:01;;;;;;;2.23;1.00;;;;;;;8.24;100.00;98890.88;5049742;28;20447;-86
2023/03/14 07:37:27;;;;;;;1.23;0.60;;;;;;;7.82;100.00;98912.75;5048620;28;20036;-87
2023/03/14 07:39:52;;;;;;;0.63;0.40;;;;;;;7.57;100.00;98924.53;5043574;28;20108;-87
2023/03/14 07:42:18;;;;;;;1.23;0.33;;;;;;;7.30;100.00;98927.75;5050421;28;20029;-88
2023/03/14 07:44:43;;;;;;;1.03;0.40;;;;;;;7.15;100.00;98939.34;5048022;28;20107;-87
2023/03/14 07:47:08;;;;;;;1.07;0.30;;;;;;;7.05;100.00;98953.53;5050146;28;20033;-87
2023/03/14 07:49:35;;;;;;;3.70;0.30;;;;;;;6.86;100.00;98961.44;5049612;28;20025;-87
2023/03/14 07:52:00;;;;;;;3.47;0.40;;;;;;;6.72;100.00;98961.25;5034858;28;20037;-87
2023/03/14 07:54:25;;;;;;;1.50;0.35;;;;;;;6.66;100.00;98973.81;5034759;28;20029;-89
2023/03/14 07:56:54;;;;;;;1.30;0.40;;;;;;;6.58;100.00;98982.38;5046448;28;20028;-89
2023/03/14 07:59:19;;;;;;;2.13;0.60;;;;;;;6.54;100.00;98990.13;5045558;28;20028;-87
2023/03/14 08:01:45;;;;;;;3.37;0.40;;;;;;;6.48;100.00;98996.56;5050159;28;20388;-87
2023/03/14 08:04:10;;;;;;;2.33;0.70;;;;;;;6.48;100.00;98997.34;5048956;28;20082;-87
2023/03/14 08:06:36;;;;;;;1.87;1.20;;;;;;;6.49;100.00;99009.59;5050591;28;20380;-87
2023/03/14 08:09:02;;;;;;;3.83;1.10;;;;;;;6.58;100.00;99014.31;5049963;28;20108;-87
2023/03/14 08:28:09;;;;;;;2.97;2.00;;;;;;;6.67;100.00;99093.31;5738464;23;20049;-88
2023/03/14 08:30:34;;;;;;;4.03;1.60;;;;;;;6.68;100.00;99094.13;5051872;28;20033;-90
2023/03/14 08:33:00;;;;;;;3.73;1.50;;;;;;;6.78;100.00;99109.25;5037015;28;20040;-90
2023/03/14 08:35:26;;;;;;;2.72;1.30;;;;;;;6.78;100.00;99115.34;5022646;28;20092;-86
2023/03/14 08:37:52;;;;;;;3.17;0.80;;;;;;;6.69;100.00;99119.66;5014943;28;20022;-85
2023/03/14 08:40:18;;;;;;;3.30;1.10;;;;;;;6.70;100.00;99128.44;5017145;28;20042;-86
2023/03/14 08:42:43;;;;;;;3.63;1.13;;;;;;;6.70;100.00;99129.25;5609711;22;20065;-87
2023/03/14 10:16:06;;;;;;;8.30;0.70;;;;;;;5.59;100.00;99537.38;4922273;23;20063;-86
2023/03/14 10:18:34;;;;;;;3.92;0.52;;;;;;;5.78;100.00;99555.56;4915902;29;20039;-86
2023/03/14 10:21:19;;;;;;;7.05;0.70;;;;;;;5.75;100.00;99551.56;4915898;29;20024;-87
2023/03/14 10:23:44;;;;;;;4.40;0.45;;;;;;;5.52;100.00;99576.66;4905009;29;20039;-87
2023/03/14 10:26:16;;;;;;;4.28;0.55;;;;;;;5.47;100.00;99593.38;4897162;29;20032;-87
2023/03/14 10:28:47;;;;;;;5.03;0.70;;;;;;;5.53;100.00;99597.66;4915905;29;20040;-87
2023/03/14 10:31:13;;;;;;;6.17;0.60;;;;;;;5.65;100.00;99609.97;4916028;29;20621;-86
2023/03/14 10:33:39;;;;;;;5.65;0.60;;;;;;;5.52;100.00;99622.63;4916046;29;20647;-86
2023/03/14 10:36:26;;;;;;;6.47;0.90;;;;;;;5.27;100.00;99632.00;4915336;29;20052;-86
2023/03/14 10:39:04;;;;;;;6.90;0.90;;;;;;;5.13;100.00;99631.59;4915554;29;20028;-87
2023/03/14 10:47:54;;;;;;;10.27;0.93;;;;;;;4.79;100.00;99676.88;5187295;23;20665;-85
2023/03/14 10:53:21;;;;;;;10.43;0.90;;;;;;;5.22;100.00;99693.03;5260246;23;20055;-87
2023/03/14 10:55:46;;;;;;;7.28;1.10;;;;;;;5.25;100.00;99697.03;4932119;29;20114;-84
2023/03/14 11:07:21;;;;;;;10.45;1.10;;;;;;;6.45;100.00;99756.28;5425236;23;20047;-86
2023/03/14 11:16:14;;;;;;;9.95;1.10;;;;;;;6.96;100.00;99786.91;4901712;29;20136;-85
2023/03/14 11:18:53;;;;;;;12.70;1.52;;;;;;;6.94;100.00;99795.19;4896082;29;20107;-84
2023/03/14 11:21:51;;;;;;;15.25;1.35;;;;;;;6.89;100.00;99802.34;4897904;29;20036;-86
2023/03/14 11:24:48;;;;;;;10.73;1.08;;;;;;;6.94;100.00;99823.66;4895889;29;20029;-86
2023/03/14 11:28:09;;;;;;;17.37;1.40;;;;;;;6.63;100.00;99820.81;4897170;29;20087;-87
2023/03/14 11:30:54;;;;;;;19.00;1.97;;;;;;;6.16;100.00;99835.63;4894613;29;20307;-87
2023/03/14 11:33:35;;;;;;;12.40;1.92;;;;;;;5.63;100.00;99852.06;4895246;29;20378;-87
2023/03/14 11:36:10;;;;;;;11.90;1.60;;;;;;;5.23;100.00;99861.16;4896837;29;20037;-87
2023/03/14 11:38:46;;;;;;;17.13;1.88;;;;;;;4.84;100.00;99883.19;4897159;29;20390;-87
2023/03/14 11:41:19;;;;;;;17.38;2.72;;;;;;;4.32;100.00;99890.34;4894303;29;20163;-85
2023/03/14 11:43:48;;;;;;;18.45;2.42;;;;;;;4.09;100.00;99891.25;4892665;29;20040;-87
2023/03/14 11:46:23;;;;;;;16.17;1.60;;;;;;;4.17;100.00;99892.72;4892726;29;20046;-86
2023/03/14 11:49:27;;;;;;;17.93;1.93;;;;;;;4.32;100.00;99892.16;4901603;29;20056;-86
2023/03/14 11:57:21;;;;;;;18.52;1.60;;;;;;;5.04;100.00;99903.91;5099501;23;20496;-86
2023/03/14 12:00:09;;;;;;;14.68;2.03;;;;;;;5.36;100.00;99910.47;4925585;29;20035;-86
2023/03/14 12:03:04;;;;;;;16.35;1.45;;;;;;;5.80;100.00;99928.28;4920143;29;20031;-86
2023/03/14 12:18:31;;;;;;;12.10;1.13;;;;;;;4.64;100.00;99977.38;4938962;23;20083;-85
2023/03/14 12:21:00;;;;;;;8.43;1.05;;;;;;;4.65;100.00;99965.72;4915334;29;20032;-85
2023/03/14 12:27:37;;;;;;;10.70;1.33;;;;;;;4.88;100.00;99977.25;4911061;23;20358;-86
2023/03/14 12:32:38;;;;;;;22.65;1.85;;;;;;;5.16;100.00;100002.09;5162841;23;20067;-86
2023/03/14 12:35:33;;;;;;;25.60;2.20;;;;;;;5.30;100.00;100008.69;4925513;29;20472;-87
2023/03/14 12:38:05;;;;;;;12.40;1.70;;;;;;;5.44;100.00;100008.38;4901228;29;20068;-87
2023/03/14 12:57:22;;;;;;;16.98;2.30;;;;;;;5.45;100.00;100010.78;4864558;29;20133;-86
2023/03/14 12:59:56;;;;;;;22.05;2.35;;;;;;;5.75;100.00;100043.34;4874869;23;20041;-87
2023/03/14 13:02:26;;;;;;;20.05;1.60;;;;;;;5.78;100.00;100050.03;4909657;29;20056;-86
2023/03/14 13:04:51;;;;;;;21.00;1.95;;;;;;;5.85;100.00;100050.66;4922074;29;20091;-86
2023/03/14 13:07:31;;;;;;;18.87;1.83;;;;;;;6.08;100.00;100056.84;4918687;29;20119;-86
2023/03/14 14:06:26;;;;;;;10.65;1.20;;;;;;;6.40;73.25;100194.56;4915856;29;20055;-86
2023/03/14 14:16:08;;;;;;;13.00;1.20;;;;;;;6.52;68.10;100227.19;4909506;29;20287;-86
2023/03/14 14:18:49;;;;;;;9.63;1.10;;;;;;;6.60;70.30;100234.78;4877137;29;20033;-85
2023/03/14 14:28:32;;;;;;;10.98;1.20;;;;;;;7.25;69.55;100282.97;4819016;29;20034;-86
2023/03/14 14:54:50;;;;;;;5.88;0.90;;;;;;;7.32;60.08;100352.09;4895281;29;20227;-84
2023/03/14 14:57:40;;;;;;;5.30;0.90;;;;;;;7.06;60.40;100335.78;4876507;29;20171;-84
2023/03/14 15:07:43;;;;;;;6.55;1.08;;;;;;;7.11;60.61;100404.31;4916661;29;20055;-84
2023/03/14 15:10:43;;;;;;;;;;;;;;;;;;;;;
2023/03/14 15:13:41;;;;;;;5.90;1.00;;;;;;;7.06;61.56;100394.41;4896002;29;20036;-84
2023/03/14 15:16:28;;;;;;;9.20;1.00;;;;;;;7.09;63.10;100407.22;4852987;29;20120;-84
2023/03/14 15:18:56;;;;;;;12.73;1.43;;;;;;;7.16;59.63;100428.38;4892601;29;20522;-85
2023/03/14 15:21:22;;;;;;;4.93;0.75;;;;;;;7.08;60.66;100434.94;4877471;29;20165;-85
2023/03/14 15:23:47;;;;;;;5.28;0.80;;;;;;;7.04;61.27;100431.13;4875464;29;20037;-85
2023/03/14 15:26:16;;;;;;;5.17;0.97;;;;;;;6.92;57.99;100454.41;4877870;29;20037;-85
2023/03/14 15:28:51;;;;;;;12.48;1.38;;;;;;;6.74;60.66;100452.75;4875142;29;20388;-87
2023/03/14 15:38:28;;;;;;;14.10;0.85;;;;;;;6.39;64.50;100457.22;4875550;29;20041;-86
2023/03/14 15:40:56;;;;;;;9.17;0.80;;;;;;;6.40;63.32;100450.84;4858604;29;20052;-87
2023/03/14 15:43:33;;;;;;;8.70;0.70;;;;;;;6.38;61.54;100458.28;4873669;29;20301;-87
2023/03/14 15:46:17;;;;;;;9.63;0.75;;;;;;;6.41;62.34;100463.09;4877186;29;20128;-85
2023/03/14 15:49:09;;;;;;;4.65;0.82;;;;;;;6.45;62.26;100487.41;4874637;29;20058;-86
2023/03/14 15:52:43;;;;;;;7.03;0.70;;;;;;;6.17;60.34;100479.19;4861703;29;20041;-87
2023/03/14 15:55:09;;;;;;;8.27;0.82;;;;;;;6.14;59.32;100492.13;4865065;29;20120;-86
2023/03/14 15:57:34;;;;;;;7.80;0.77;;;;;;;6.10;59.96;100509.63;4870357;29;20477;-86
2023/03/14 16:00:00;;;;;;;7.73;0.70;;;;;;;6.00;60.12;100520.88;4876363;29;20064;-85
2023/03/14 16:02:26;;;;;;;6.65;1.00;;;;;;;5.88;60.47;100515.53;4876242;29;20112;-85
2023/03/14 16:04:51;;;;;;;12.63;1.30;;;;;;;5.80;62.46;100527.34;4875771;29;20462;-87
2023/03/14 16:07:17;;;;;;;10.50;0.90;;;;;;;5.74;62.29;100528.28;4874953;29;20089;-86
2023/03/14 16:09:42;;;;;;;8.85;0.60;;;;;;;5.68;61.69;100537.16;4874501;29;20024;-85
2023/03/14 16:12:08;;;;;;;9.43;1.37;;;;;;;5.66;60.95;100544.59;4876628;29;20033;-85
2023/03/14 16:14:34;;;;;;;9.90;0.88;;;;;;;5.57;63.36;100544.09;4876319;29;20021;-85
2023/03/14 16:16:59;;;;;;;13.27;0.87;;;;;;;5.58;65.95;100551.84;4876483;29;20358;-85
2023/03/14 16:19:26;;;;;;;11.37;1.03;;;;;;;5.58;63.51;100559.00;4874455;29;20084;-86
2023/03/14 16:21:52;;;;;;;9.15;0.85;;;;;;;5.55;62.21;100557.63;4875652;29;20123;-85
2023/03/14 16:24:17;;;;;;;11.30;0.95;;;;;;;5.46;61.19;100562.47;4876663;29;20124;-85
2023/03/14 16:26:43;;;;;;;5.90;0.80;;;;;;;5.40;61.33;100574.03;4875744;29;20037;-86
2023/03/14 16:29:09;;;;;;;8.32;0.90;;;;;;;5.36;62.88;100583.50;4874295;29;20084;-85
2023/03/14 16:31:41;;;;;;;9.33;1.20;;;;;;;5.26;65.52;100573.44;4885515;23;20029;-84
2023/03/14 16:34:07;;;;;;;13.95;1.30;;;;;;;5.37;66.00;100592.28;4913094;29;20536;-84
2023/03/14 16:36:32;;;;;;;10.18;1.40;;;;;;;5.34;65.80;100604.19;4905429;29;20025;-85
2023/03/14 16:42:36;;;;;;;9.10;1.05;;;;;;;5.15;66.17;100609.56;4962868;23;20047;-86